This is the latest recevied weather packets stored in our database for station/object W3JGB. If no packets are shown the sender has not sent any weather packets the latest 10 day(s).
| Time | Temp. | Humidity | Pressure | Rain* | Wind** | Luminosity | Snow |
|---|---|---|---|---|---|---|---|
| 1778175589 | 14.44° C | 48% | 1009.4 hPa | 0 mm | - | 196 W/m² | - |
| 1778175287 | 14.44° C | 50% | 1009.3 hPa | 0 mm | - | 267 W/m² | - |
| 1778174984 | 15° C | 48% | 1009.3 hPa | 0 mm | - | 262 W/m² | - |
| 1778174680 | 14.44° C | 44% | 1009.8 hPa | 0 mm | - | 211 W/m² | - |
| 1778174376 | 15.56° C | 49% | 1009.7 hPa | 0 mm | - | 183 W/m² | - |
| 1778174072 | 15.56° C | 45% | 1009.8 hPa | 0 mm | - | 472 W/m² | - |
| 1778173770 | 14.44° C | 50% | 1009.8 hPa | 0 mm | - | 206 W/m² | - |
| 1778173466 | 14.44° C | 47% | 1010 hPa | 0 mm | - | 231 W/m² | - |
| 1778173163 | 14.44° C | 48% | 1010.2 hPa | 0 mm | - | 649 W/m² | - |
| 1778172859 | 14.44° C | 46% | 1010 hPa | 0 mm | - | 250 W/m² | - |
| 1778172554 | 14.44° C | 43% | 1010.1 hPa | 0 mm | - | 159 W/m² | - |
| 1778172252 | 15° C | 44% | 1010.1 hPa | 0 mm | - | 157 W/m² | - |
| 1778171949 | 14.44° C | 44% | 1010.2 hPa | 0 mm | - | 666 W/m² | - |
| 1778171646 | 14.44° C | 43% | 1010.4 hPa | 0 mm | - | 177 W/m² | - |
| 1778171343 | 15.56° C | 43% | 1010.4 hPa | 0 mm | - | 195 W/m² | - |
| 1778171038 | 15° C | 44% | 1010.6 hPa | 0 mm | - | 715 W/m² | - |
| 1778170736 | 15° C | 47% | 1010.5 hPa | 0 mm | - | 190 W/m² | - |
| 1778170432 | 15° C | 44% | 1010.9 hPa | 0 mm | - | 237 W/m² | - |
| 1778170129 | 14.44° C | 46% | 1010.9 hPa | 0 mm | - | 293 W/m² | - |
| 1778169824 | 14.44° C | 46% | 1010.8 hPa | 0 mm | - | 144 W/m² | - |
| 1778169521 | 15° C | 41% | 1010.8 hPa | 0 mm | - | 539 W/m² | - |
| 1778169216 | 15° C | 43% | 1010.9 hPa | 0 mm | - | 353 W/m² | - |
| 1778168914 | 15° C | 41% | 1011.2 hPa | 0 mm | - | 149 W/m² | - |
| 1778168611 | 15° C | 47% | 1011.1 hPa | 0 mm | - | 444 W/m² | - |
| 1778168308 | 13.89° C | 48% | 1011.1 hPa | 0 mm | - | 583 W/m² | - |
* Rain latest hour (hover to see other rain measurements)
** Current wind speed in m/s (hover to see current wind gust speed)